createdAt,value
2023-03-26T00:01:29.721Z,8.54
2023-03-26T00:03:57.492Z,8.53
2023-03-26T00:06:26.984Z,8.44
2023-03-26T00:08:54.517Z,8.57
2023-03-26T00:11:22.998Z,8.59
2023-03-26T00:13:50.685Z,8.62
2023-03-26T00:16:19.776Z,8.64
2023-03-26T00:18:48.958Z,8.62
2023-03-26T00:21:17.751Z,8.66
2023-03-26T00:23:44.794Z,8.69
2023-03-26T00:26:11.475Z,8.70
2023-03-26T00:28:40.524Z,8.72
2023-03-26T00:31:10.660Z,8.71
2023-03-26T00:33:40.729Z,8.56
2023-03-26T00:36:10.981Z,8.49
2023-03-26T00:38:41.466Z,8.47
2023-03-26T00:41:18.058Z,8.47
2023-03-26T00:43:48.921Z,8.47
2023-03-26T00:46:17.501Z,8.41
2023-03-26T00:48:46.010Z,8.35
2023-03-26T00:51:18.110Z,8.31
2023-03-26T00:53:47.029Z,8.32
2023-03-26T00:56:14.307Z,8.32
2023-03-26T00:58:41.492Z,8.27
2023-03-26T01:01:13.665Z,8.31
2023-03-26T01:03:45.847Z,8.32
2023-03-26T01:06:32.926Z,8.29
2023-03-26T01:09:05.608Z,8.36
2023-03-26T01:11:35.034Z,8.35
2023-03-26T01:14:14.998Z,8.43
2023-03-26T01:16:56.309Z,8.41
2023-03-26T01:19:38.284Z,8.43
2023-03-26T01:22:09.657Z,8.50
2023-03-26T01:24:36.394Z,8.41
2023-03-26T01:27:17.799Z,8.39
2023-03-26T01:29:52.817Z,8.37
2023-03-26T01:32:52.864Z,8.35
2023-03-26T01:35:38.552Z,8.35
2023-03-26T01:38:14.196Z,8.31
2023-03-26T01:40:43.662Z,8.31
2023-03-26T01:43:18.042Z,8.28
2023-03-26T01:45:47.806Z,8.28
2023-03-26T01:48:14.390Z,8.24
2023-03-26T01:50:41.294Z,8.23
2023-03-26T01:53:10.361Z,8.15
2023-03-26T01:55:49.755Z,8.10
2023-03-26T01:58:36.285Z,7.98
2023-03-26T02:01:20.062Z,7.85
2023-03-26T02:03:57.763Z,7.89
2023-03-26T02:06:45.997Z,7.88
2023-03-26T02:09:17.531Z,7.79
2023-03-26T02:11:45.923Z,7.77
2023-03-26T02:14:14.600Z,7.72
2023-03-26T02:16:41.200Z,7.68
2023-03-26T02:19:15.500Z,7.68
2023-03-26T02:21:46.842Z,7.70
2023-03-26T02:24:13.412Z,7.73
2023-03-26T02:26:39.990Z,7.79
2023-03-26T02:29:06.551Z,7.78
2023-03-26T02:31:33.178Z,7.76
2023-03-26T02:33:59.711Z,7.82
2023-03-26T02:36:28.148Z,7.80
2023-03-26T02:38:57.995Z,7.75
2023-03-26T02:41:24.735Z,7.74
2023-03-26T02:43:51.637Z,7.73
2023-03-26T02:46:18.272Z,7.62
2023-03-26T02:48:44.944Z,7.65
2023-03-26T02:51:11.503Z,7.58
2023-03-26T02:53:39.494Z,7.53
2023-03-26T02:56:06.956Z,7.54
2023-03-26T02:58:33.500Z,7.51
2023-03-26T03:01:03.142Z,7.52
2023-03-26T03:03:30.607Z,7.52
2023-03-26T03:05:58.110Z,7.55
2023-03-26T03:08:28.137Z,7.63
2023-03-26T03:11:02.023Z,7.63
2023-03-26T03:13:28.746Z,7.71
2023-03-26T03:15:56.103Z,7.70
2023-03-26T03:18:22.989Z,7.70
2023-03-26T03:20:50.034Z,7.60
2023-03-26T03:23:17.318Z,7.51
2023-03-26T03:25:43.896Z,7.54
2023-03-26T03:28:11.185Z,7.50
2023-03-26T03:30:37.986Z,7.49
2023-03-26T03:33:06.146Z,7.48
2023-03-26T03:35:33.732Z,7.46
2023-03-26T03:38:01.258Z,7.45
2023-03-26T03:40:28.072Z,7.42
2023-03-26T03:42:54.689Z,7.33
2023-03-26T03:45:21.440Z,7.32
2023-03-26T03:47:48.126Z,7.37
2023-03-26T03:50:14.765Z,7.33
2023-03-26T03:52:41.281Z,7.29
2023-03-26T03:55:10.557Z,7.34
2023-03-26T03:57:37.264Z,7.40
2023-03-26T04:00:06.317Z,7.42
2023-03-26T04:02:35.981Z,7.35
2023-03-26T04:05:06.391Z,7.29
2023-03-26T04:07:33.454Z,7.19
2023-03-26T04:10:02.897Z,7.23
2023-03-26T04:12:30.525Z,7.26
2023-03-26T04:14:58.184Z,7.29
2023-03-26T04:17:25.660Z,7.33
2023-03-26T04:19:55.465Z,7.34
2023-03-26T04:22:23.536Z,7.33
2023-03-26T04:24:50.224Z,7.29
2023-03-26T04:27:27.533Z,7.41
2023-03-26T04:29:57.423Z,7.45
2023-03-26T04:32:29.760Z,7.53
2023-03-26T04:35:00.375Z,7.59
2023-03-26T04:37:41.654Z,7.64
2023-03-26T04:40:16.815Z,7.72
2023-03-26T04:42:46.216Z,7.74
2023-03-26T04:45:15.609Z,7.74
2023-03-26T04:47:42.255Z,7.63
2023-03-26T04:50:10.641Z,7.62
2023-03-26T04:52:38.482Z,7.59
2023-03-26T04:55:13.812Z,7.58
2023-03-26T04:57:46.172Z,7.63
2023-03-26T05:00:16.430Z,7.61
2023-03-26T05:02:43.625Z,7.70
2023-03-26T05:05:10.822Z,7.69
2023-03-26T05:07:37.896Z,7.72
2023-03-26T05:10:05.195Z,7.79
2023-03-26T05:12:31.768Z,7.79
2023-03-26T05:14:58.315Z,7.73
2023-03-26T05:17:25.769Z,7.70
2023-03-26T05:19:52.569Z,7.69
2023-03-26T05:22:19.491Z,7.64
2023-03-26T05:24:46.007Z,7.58
2023-03-26T05:27:20.227Z,7.52
2023-03-26T05:29:46.821Z,7.51
2023-03-26T05:32:13.523Z,7.49
2023-03-26T05:34:41.569Z,7.49
2023-03-26T05:37:09.155Z,7.45
2023-03-26T05:39:35.751Z,7.48
2023-03-26T05:42:02.725Z,7.48
2023-03-26T05:44:29.383Z,7.52
2023-03-26T05:46:55.913Z,7.52
2023-03-26T05:49:22.497Z,7.50
2023-03-26T05:51:49.044Z,7.53
2023-03-26T05:54:15.655Z,7.57
2023-03-26T05:56:42.214Z,7.50
2023-03-26T05:59:08.865Z,7.58
2023-03-26T06:01:35.363Z,7.63
2023-03-26T06:04:02.071Z,7.63
2023-03-26T06:06:28.601Z,7.78
2023-03-26T06:09:01.523Z,7.95
2023-03-26T06:11:30.805Z,8.08
2023-03-26T06:13:57.848Z,8.13
2023-03-26T06:16:27.074Z,8.23
2023-03-26T06:18:56.921Z,8.19
2023-03-26T06:21:28.091Z,8.33
2023-03-26T06:23:55.711Z,8.43
2023-03-26T06:26:22.317Z,8.41
2023-03-26T06:28:49.001Z,8.53
2023-03-26T06:31:17.307Z,8.56
2023-03-26T06:33:43.919Z,8.62
2023-03-26T06:36:10.795Z,8.68
2023-03-26T06:38:37.349Z,8.68
2023-03-26T06:41:06.187Z,8.73
2023-03-26T06:43:33.952Z,8.77
2023-03-26T06:46:01.438Z,8.80
2023-03-26T06:48:28.106Z,8.77
2023-03-26T06:50:55.438Z,8.87
2023-03-26T06:53:22.209Z,8.88
2023-03-26T06:55:48.794Z,8.80
2023-03-26T06:58:16.686Z,8.84
2023-03-26T07:00:43.357Z,8.93
2023-03-26T07:03:11.427Z,8.84
2023-03-26T07:05:40.661Z,8.77
2023-03-26T07:08:07.249Z,8.82
2023-03-26T07:10:33.828Z,8.80
2023-03-26T07:13:00.401Z,8.83
2023-03-26T07:15:28.940Z,8.91
2023-03-26T07:17:56.319Z,9.03
2023-03-26T07:20:23.660Z,9.08
2023-03-26T07:22:51.085Z,9.11
2023-03-26T07:25:19.098Z,9.07
2023-03-26T07:28:06.410Z,8.99
2023-03-26T07:31:07.416Z,9.26
2023-03-26T07:33:46.870Z,9.35
2023-03-26T07:36:16.229Z,9.28
2023-03-26T07:39:00.220Z,9.30
2023-03-26T07:41:49.595Z,9.45
2023-03-26T07:44:25.271Z,9.33
2023-03-26T07:46:53.357Z,9.34
2023-03-26T07:49:20.550Z,9.36
2023-03-26T07:51:48.973Z,9.39
2023-03-26T07:54:15.912Z,9.54
2023-03-26T07:57:07.306Z,9.70
2023-03-26T08:00:09.137Z,9.61
2023-03-26T08:03:02.652Z,9.67
2023-03-26T08:05:37.275Z,9.70
2023-03-26T08:08:38.207Z,9.77
2023-03-26T08:11:23.369Z,9.66
2023-03-26T08:14:27.696Z,9.55
2023-03-26T08:17:10.687Z,9.53
2023-03-26T08:20:05.853Z,9.49
2023-03-26T08:22:41.182Z,9.56
2023-03-26T08:25:27.574Z,9.53
2023-03-26T08:28:22.097Z,9.68
2023-03-26T08:30:48.774Z,9.51
2023-03-26T08:33:19.133Z,9.50
2023-03-26T08:35:46.790Z,9.51
2023-03-26T08:38:15.683Z,9.56
2023-03-26T08:41:03.831Z,9.53
2023-03-26T08:44:04.746Z,9.56
2023-03-26T08:46:43.536Z,9.69
2023-03-26T08:49:33.530Z,9.75
2023-03-26T08:52:42.691Z,9.79
2023-03-26T08:55:28.330Z,9.79
2023-03-26T08:58:09.769Z,9.98
2023-03-26T09:00:58.036Z,10.16
2023-03-26T09:03:47.603Z,10.19
2023-03-26T09:06:43.350Z,10.19
2023-03-26T09:09:51.499Z,10.21
2023-03-26T09:12:53.022Z,10.37
2023-03-26T09:15:58.106Z,10.24
2023-03-26T09:18:45.547Z,10.38
2023-03-26T09:21:34.065Z,10.50
2023-03-26T09:24:38.228Z,10.54
2023-03-26T09:27:11.100Z,10.50
2023-03-26T09:30:15.647Z,10.53
2023-03-26T09:32:54.216Z,10.82
2023-03-26T09:35:45.660Z,10.78
2023-03-26T09:38:49.594Z,10.99
2023-03-26T09:41:37.908Z,11.01
2023-03-26T09:44:23.160Z,11.55
2023-03-26T09:47:22.313Z,12.13
2023-03-26T09:50:15.779Z,12.40
2023-03-26T09:53:07.158Z,12.27
2023-03-26T09:55:39.351Z,12.23
2023-03-26T09:58:11.536Z,11.65
2023-03-26T10:00:48.526Z,11.53
2023-03-26T10:03:47.914Z,11.50
2023-03-26T10:06:45.910Z,11.65
2023-03-26T10:09:24.629Z,11.87
2023-03-26T10:12:06.356Z,11.73
2023-03-26T10:14:40.569Z,11.98
2023-03-26T10:17:20.407Z,12.00
2023-03-26T10:20:09.852Z,11.58
2023-03-26T10:22:45.395Z,11.39
2023-03-26T10:25:11.863Z,11.68
2023-03-26T10:27:50.703Z,11.82
2023-03-26T10:30:47.920Z,12.16
2023-03-26T10:33:23.997Z,12.02
2023-03-26T10:36:13.441Z,11.94
2023-03-26T10:39:36.196Z,12.21
2023-03-26T10:42:26.476Z,12.30
2023-03-26T10:45:15.495Z,12.81
2023-03-26T10:48:03.498Z,12.72
2023-03-26T10:51:02.622Z,12.51
2023-03-26T10:53:37.351Z,12.90
2023-03-26T10:56:34.208Z,13.12
2023-03-26T10:59:12.302Z,12.92
2023-03-26T11:02:04.797Z,13.22
2023-03-26T11:04:41.844Z,13.64
2023-03-26T11:07:13.377Z,12.94
2023-03-26T11:09:59.326Z,13.21
2023-03-26T11:12:41.593Z,13.14
2023-03-26T11:15:17.197Z,12.67
2023-03-26T11:17:57.256Z,12.80
2023-03-26T11:20:51.017Z,13.18
2023-03-26T11:23:32.461Z,13.26
2023-03-26T11:26:07.294Z,13.47
2023-03-26T11:29:03.241Z,13.41
2023-03-26T11:32:06.591Z,13.32
2023-03-26T11:34:58.660Z,13.14
2023-03-26T11:37:32.743Z,12.88
2023-03-26T11:40:03.808Z,12.67
2023-03-26T11:42:30.927Z,12.83
2023-03-26T11:45:01.162Z,13.04
2023-03-26T11:48:04.119Z,13.10
2023-03-26T11:50:35.225Z,13.27
2023-03-26T11:53:22.505Z,13.85
2023-03-26T11:56:01.205Z,14.09
2023-03-26T11:59:01.313Z,14.41
2023-03-26T12:01:46.506Z,13.38
2023-03-26T12:04:17.028Z,13.18
2023-03-26T12:07:00.505Z,13.14
2023-03-26T12:09:29.313Z,12.72
2023-03-26T12:12:05.055Z,12.57
2023-03-26T12:14:36.291Z,12.56
2023-03-26T12:17:11.549Z,12.67
2023-03-26T12:19:41.224Z,12.68
2023-03-26T12:22:38.503Z,12.77
2023-03-26T12:25:18.284Z,12.61
2023-03-26T12:27:49.354Z,12.51
2023-03-26T12:30:20.595Z,12.44
2023-03-26T12:32:49.210Z,12.53
2023-03-26T12:35:27.151Z,12.44
2023-03-26T12:37:55.944Z,12.58
2023-03-26T12:40:25.337Z,12.77
2023-03-26T12:44:48.987Z,12.92
2023-03-26T12:45:44.270Z,13.37
2023-03-26T12:48:15.697Z,13.80
2023-03-26T12:51:07.147Z,13.49
2023-03-26T12:53:52.659Z,13.50
2023-03-26T12:56:21.934Z,13.57
2023-03-26T12:59:01.146Z,13.33
2023-03-26T13:01:38.311Z,13.00
2023-03-26T13:04:13.464Z,12.96
2023-03-26T13:07:00.250Z,12.80
2023-03-26T13:09:40.951Z,12.71
2023-03-26T13:12:40.498Z,12.58
2023-03-26T13:15:17.768Z,12.53
2023-03-26T13:18:21.471Z,12.44
2023-03-26T13:21:08.806Z,12.64
2023-03-26T13:23:53.586Z,12.69
2023-03-26T13:26:59.567Z,12.70
2023-03-26T13:29:46.401Z,12.63
2023-03-26T13:32:24.641Z,12.78
2023-03-26T13:35:26.490Z,12.72
2023-03-26T13:38:02.152Z,12.69
2023-03-26T13:40:55.473Z,12.79
2023-03-26T13:43:40.590Z,12.67
2023-03-26T13:46:23.949Z,12.67
2023-03-26T13:49:15.516Z,12.82
2023-03-26T13:51:52.412Z,12.45
2023-03-26T13:54:33.869Z,12.43
2023-03-26T13:57:32.381Z,12.14
2023-03-26T14:00:06.178Z,11.58
2023-03-26T14:02:39.561Z,11.84
2023-03-26T14:05:13.737Z,11.01
2023-03-26T14:07:57.334Z,10.92
2023-03-26T14:10:28.979Z,10.65
2023-03-26T14:13:20.316Z,10.81
2023-03-26T14:15:56.101Z,11.06
2023-03-26T14:18:22.685Z,10.92
2023-03-26T14:21:37.451Z,10.77
2023-03-26T14:24:12.404Z,11.15
2023-03-26T14:26:58.489Z,10.90
2023-03-26T14:29:56.653Z,10.61
2023-03-26T14:32:39.740Z,10.42
2023-03-26T14:35:39.222Z,10.29
2023-03-26T14:38:14.854Z,10.05
2023-03-26T14:41:05.599Z,10.19
2023-03-26T14:44:04.084Z,10.11
2023-03-26T14:46:40.912Z,9.97
2023-03-26T14:49:28.446Z,10.01
2023-03-26T14:52:18.465Z,10.08
2023-03-26T14:54:48.274Z,9.92
2023-03-26T14:57:36.324Z,9.78
2023-03-26T15:00:24.744Z,9.63
2023-03-26T15:03:00.616Z,9.58
2023-03-26T15:05:36.589Z,9.44
2023-03-26T15:09:00.151Z,9.33
2023-03-26T15:11:48.177Z,9.39
2023-03-26T15:14:39.231Z,9.41
2023-03-26T15:17:35.647Z,9.24
2023-03-26T15:20:35.496Z,9.26
2023-03-26T15:23:44.279Z,9.20
2023-03-26T15:26:30.608Z,9.02
2023-03-26T15:29:04.644Z,8.75
2023-03-26T15:31:55.551Z,8.67
2023-03-26T15:34:34.291Z,8.75
2023-03-26T15:37:10.648Z,8.68
2023-03-26T15:40:08.165Z,8.51
2023-03-26T15:42:48.286Z,8.44
2023-03-26T15:45:14.999Z,8.37
2023-03-26T15:47:57.986Z,8.16
2023-03-26T15:50:32.939Z,8.36
2023-03-26T15:53:02.603Z,8.33
2023-03-26T15:55:36.557Z,8.33
2023-03-26T15:58:07.799Z,8.10
2023-03-26T16:00:38.308Z,7.90
2023-03-26T16:03:10.898Z,8.11
2023-03-26T16:06:15.826Z,7.97
2023-03-26T16:09:21.991Z,8.15
2023-03-26T16:12:11.908Z,7.92
2023-03-26T16:14:43.218Z,7.60
2023-03-26T16:17:20.617Z,7.87
2023-03-26T16:19:52.064Z,7.84
2023-03-26T16:22:42.866Z,7.56
2023-03-26T16:25:27.281Z,7.66
2023-03-26T16:28:10.777Z,7.59
2023-03-26T16:30:38.206Z,7.77
2023-03-26T16:33:15.611Z,7.74
2023-03-26T16:36:02.144Z,7.62
2023-03-26T16:38:50.232Z,7.33
2023-03-26T16:41:18.972Z,7.29
2023-03-26T16:43:59.054Z,7.48
2023-03-26T16:46:50.491Z,7.43
2023-03-26T16:49:33.595Z,7.24
2023-03-26T16:52:20.976Z,7.29
2023-03-26T16:54:47.490Z,7.37
2023-03-26T16:57:50.096Z,7.61
2023-03-26T17:00:16.658Z,7.31
2023-03-26T17:03:08.077Z,7.20
2023-03-26T17:05:43.918Z,7.32
2023-03-26T17:08:36.179Z,7.46
2023-03-26T17:11:24.287Z,7.50
2023-03-26T17:14:13.309Z,7.27
2023-03-26T17:16:51.796Z,7.26
2023-03-26T17:19:21.232Z,7.15
2023-03-26T17:22:12.034Z,7.26
2023-03-26T17:24:48.866Z,7.13
2023-03-26T17:27:47.053Z,7.10
2023-03-26T17:30:38.103Z,7.02
2023-03-26T17:33:05.996Z,7.07
2023-03-26T17:35:39.572Z,7.05
2023-03-26T17:38:18.038Z,6.96
2023-03-26T17:41:00.161Z,6.96
2023-03-26T17:43:38.730Z,6.99
2023-03-26T17:46:32.916Z,7.26
2023-03-26T17:49:01.587Z,7.17
2023-03-26T17:51:46.479Z,7.24
2023-03-26T17:54:39.449Z,7.02
2023-03-26T17:57:40.087Z,7.08
2023-03-26T18:00:16.283Z,7.07
2023-03-26T18:02:50.562Z,6.90
2023-03-26T18:05:17.656Z,6.89
2023-03-26T18:08:06.587Z,6.83
2023-03-26T18:10:54.298Z,6.68
2023-03-26T18:13:53.856Z,6.94
2023-03-26T18:16:25.400Z,6.88
2023-03-26T18:18:53.737Z,6.95
2023-03-26T18:21:40.505Z,6.94
2023-03-26T18:24:14.109Z,6.65
2023-03-26T18:26:55.418Z,6.60
2023-03-26T18:29:33.622Z,6.64
2023-03-26T18:32:22.247Z,6.71
2023-03-26T18:34:54.108Z,6.54
2023-03-26T18:37:24.080Z,6.50
2023-03-26T18:40:24.501Z,6.98
2023-03-26T18:42:59.330Z,6.76
2023-03-26T18:45:45.840Z,6.60
2023-03-26T18:48:19.114Z,6.48
2023-03-26T18:50:47.429Z,6.50
2023-03-26T18:53:20.950Z,6.48
2023-03-26T18:55:50.528Z,6.45
2023-03-26T18:58:31.417Z,6.72
2023-03-26T19:01:04.503Z,6.81
2023-03-26T19:03:35.459Z,6.65
2023-03-26T19:06:04.665Z,6.58
2023-03-26T19:08:32.755Z,6.47
2023-03-26T19:11:04.787Z,6.42
2023-03-26T19:13:33.124Z,6.46
2023-03-26T19:16:07.846Z,6.45
2023-03-26T19:18:37.479Z,6.39
2023-03-26T19:21:04.577Z,6.46
2023-03-26T19:23:42.085Z,6.38
2023-03-26T19:26:10.923Z,6.35
2023-03-26T19:28:50.712Z,6.36
2023-03-26T19:31:31.709Z,6.31
2023-03-26T19:34:15.609Z,6.34
2023-03-26T19:36:58.230Z,6.39
2023-03-26T19:39:38.170Z,6.39
2023-03-26T19:42:06.488Z,6.38
2023-03-26T19:44:33.666Z,6.44
2023-03-26T19:47:08.358Z,6.47
2023-03-26T19:49:47.246Z,6.39
2023-03-26T19:52:15.110Z,6.39
2023-03-26T19:55:03.691Z,6.42
2023-03-26T19:57:32.194Z,6.42
2023-03-26T19:59:59.769Z,6.38
2023-03-26T20:02:27.486Z,6.33
2023-03-26T20:04:54.185Z,6.33
2023-03-26T20:07:35.502Z,6.40
2023-03-26T20:10:02.937Z,6.40
2023-03-26T20:12:29.701Z,6.42
2023-03-26T20:14:56.229Z,6.40
2023-03-26T20:17:22.734Z,6.46
2023-03-26T20:19:49.222Z,6.57
2023-03-26T20:22:20.089Z,6.64
2023-03-26T20:24:46.813Z,6.85
2023-03-26T20:27:14.560Z,6.98
2023-03-26T20:29:42.253Z,7.01
2023-03-26T20:32:20.364Z,6.94
2023-03-26T20:34:49.859Z,6.92
2023-03-26T20:37:17.577Z,7.00
2023-03-26T20:39:45.652Z,7.05
2023-03-26T20:42:15.396Z,6.99
2023-03-26T20:44:42.830Z,6.95
2023-03-26T20:47:12.687Z,7.03
2023-03-26T20:49:40.254Z,6.99
2023-03-26T20:52:06.939Z,6.98
2023-03-26T20:54:33.544Z,6.88
2023-03-26T20:57:00.276Z,6.92
2023-03-26T20:59:28.421Z,6.92
2023-03-26T21:01:56.993Z,6.79
2023-03-26T21:04:24.791Z,6.84
2023-03-26T21:06:53.418Z,6.90
2023-03-26T21:09:25.606Z,6.83
2023-03-26T21:11:52.300Z,6.79
2023-03-26T21:14:21.147Z,6.69
2023-03-26T21:16:48.284Z,6.66
2023-03-26T21:19:15.811Z,6.80
2023-03-26T21:21:48.244Z,6.74
2023-03-26T21:24:23.932Z,6.81
2023-03-26T21:26:50.536Z,6.80
2023-03-26T21:29:17.305Z,6.78
2023-03-26T21:31:44.355Z,6.67
2023-03-26T21:34:13.270Z,6.74
2023-03-26T21:36:40.353Z,6.67
2023-03-26T21:39:07.784Z,6.67
2023-03-26T21:42:04.780Z,6.66
2023-03-26T21:44:33.542Z,6.44
2023-03-26T21:47:00.851Z,6.58
2023-03-26T21:49:28.005Z,6.32
2023-03-26T21:51:54.930Z,6.23
2023-03-26T21:54:27.941Z,6.23
2023-03-26T21:57:26.653Z,6.28
2023-03-26T22:00:16.528Z,6.22
2023-03-26T22:03:19.959Z,6.37
2023-03-26T22:05:52.371Z,6.24
2023-03-26T22:08:27.216Z,6.24
2023-03-26T22:10:53.883Z,6.54
2023-03-26T22:13:20.573Z,6.72
2023-03-26T22:15:47.166Z,6.38
2023-03-26T22:18:14.295Z,6.65
2023-03-26T22:20:43.341Z,6.65
2023-03-26T22:23:09.965Z,6.72
2023-03-26T22:25:36.503Z,6.63
2023-03-26T22:28:04.373Z,6.66
2023-03-26T22:30:31.518Z,6.56
2023-03-26T22:32:58.813Z,6.48
2023-03-26T22:35:26.228Z,6.47
2023-03-26T22:37:53.017Z,6.49
2023-03-26T22:40:27.788Z,6.44
2023-03-26T22:42:54.383Z,6.13
2023-03-26T22:45:22.654Z,6.18
2023-03-26T22:47:49.385Z,6.12
2023-03-26T22:50:16.129Z,6.09
2023-03-26T22:52:42.677Z,6.08
2023-03-26T22:55:10.937Z,6.17
2023-03-26T22:57:38.644Z,6.19
2023-03-26T23:00:14.897Z,6.18
2023-03-26T23:02:42.088Z,6.28
2023-03-26T23:05:09.221Z,6.23
2023-03-26T23:07:35.807Z,6.40
2023-03-26T23:10:02.381Z,6.40
2023-03-26T23:12:28.962Z,6.42
2023-03-26T23:14:55.481Z,6.49
2023-03-26T23:17:22.325Z,6.39
2023-03-26T23:19:49.369Z,6.48
2023-03-26T23:22:16.483Z,6.52
2023-03-26T23:24:43.057Z,6.49
2023-03-26T23:27:10.743Z,6.28
2023-03-26T23:29:37.377Z,6.39
2023-03-26T23:32:04.100Z,6.12
2023-03-26T23:34:51.714Z,6.22
2023-03-26T23:37:23.216Z,6.22
2023-03-26T23:39:51.149Z,6.38
2023-03-26T23:42:28.353Z,6.30
2023-03-26T23:44:56.859Z,6.43
2023-03-26T23:47:23.746Z,6.36
2023-03-26T23:49:50.564Z,6.29
2023-03-26T23:52:17.103Z,6.42
2023-03-26T23:54:44.699Z,6.53
2023-03-26T23:57:11.362Z,6.51
2023-03-26T23:59:38.286Z,6.48
